createdAt,value
2023-06-01T00:00:44.953Z,17.9
2023-06-01T00:01:45.106Z,17.9
2023-06-01T00:02:45.386Z,17.9
2023-06-01T00:03:46.177Z,17.9
2023-06-01T00:04:46.734Z,17.9
2023-06-01T00:05:46.979Z,17.9
2023-06-01T00:06:47.178Z,17.9
2023-06-01T00:07:47.390Z,17.9
2023-06-01T00:08:47.555Z,17.9
2023-06-01T00:09:47.730Z,17.9
2023-06-01T00:10:47.908Z,17.9
2023-06-01T00:11:48.082Z,17.9
2023-06-01T00:12:48.246Z,17.9
2023-06-01T00:13:48.454Z,17.9
2023-06-01T00:14:48.621Z,17.9
2023-06-01T00:15:48.822Z,17.9
2023-06-01T00:16:49.049Z,17.9
2023-06-01T00:17:49.324Z,17.9
2023-06-01T00:18:49.582Z,17.9
2023-06-01T00:19:49.759Z,17.9
2023-06-01T00:20:49.945Z,16.9
2023-06-01T00:21:50.163Z,16.9
2023-06-01T00:22:50.405Z,16.9
2023-06-01T00:23:50.598Z,16.9
2023-06-01T00:24:50.785Z,16.9
2023-06-01T00:25:50.957Z,16.9
2023-06-01T00:26:51.168Z,16.9
2023-06-01T00:27:51.421Z,16.9
2023-06-01T00:28:51.644Z,16.9
2023-06-01T00:29:51.800Z,16.9
2023-06-01T00:30:51.968Z,16.9
2023-06-01T00:31:52.313Z,16.9
2023-06-01T00:32:52.714Z,16.9
2023-06-01T00:33:52.948Z,16.9
2023-06-01T00:34:53.178Z,16.9
2023-06-01T00:35:53.349Z,16.9
2023-06-01T00:36:53.528Z,16.9
2023-06-01T00:37:53.803Z,16.9
2023-06-01T00:38:54.038Z,16.9
2023-06-01T00:39:54.249Z,16.9
2023-06-01T00:40:54.431Z,16.9
2023-06-01T00:41:58.621Z,16.9
2023-06-01T00:42:59.141Z,16.6
2023-06-01T00:43:59.345Z,16.6
2023-06-01T00:44:59.505Z,16.6
2023-06-01T00:45:59.698Z,16.6
2023-06-01T00:46:59.952Z,16.6
2023-06-01T00:48:00.433Z,16.6
2023-06-01T00:49:00.721Z,16.6
2023-06-01T00:50:00.917Z,16.6
2023-06-01T00:51:01.463Z,16.6
2023-06-01T00:52:02.316Z,16.6
2023-06-01T00:53:02.485Z,16.6
2023-06-01T00:54:02.657Z,16.6
2023-06-01T00:55:02.832Z,16.6
2023-06-01T00:56:03.000Z,16.6
2023-06-01T00:57:03.185Z,16.6
2023-06-01T00:58:03.413Z,16.6
2023-06-01T00:59:03.620Z,16.6
2023-06-01T01:00:03.806Z,16.6
2023-06-01T01:01:04.565Z,16.6
2023-06-01T01:02:05.202Z,16.6
2023-06-01T01:03:05.642Z,16.6
2023-06-01T01:04:05.888Z,16.6
2023-06-01T01:05:06.106Z,16.6
2023-06-01T01:06:06.278Z,16.6
2023-06-01T01:07:06.549Z,16.6
2023-06-01T01:08:06.734Z,16.6
2023-06-01T01:09:06.946Z,16.6
2023-06-01T01:10:07.121Z,16.6
2023-06-01T01:11:07.310Z,16.6
2023-06-01T01:12:07.464Z,16.6
2023-06-01T01:13:07.628Z,16.6
2023-06-01T01:14:07.828Z,16.6
2023-06-01T01:15:08.033Z,16.6
2023-06-01T01:16:08.208Z,16.6
2023-06-01T01:17:08.649Z,16.6
2023-06-01T01:18:09.047Z,16.6
2023-06-01T01:19:09.306Z,16.6
2023-06-01T01:20:10.635Z,16.6
2023-06-01T01:21:10.977Z,16
2023-06-01T01:22:11.160Z,16
2023-06-01T01:23:11.334Z,16
2023-06-01T01:24:11.507Z,16
2023-06-01T01:25:11.680Z,16
2023-06-01T01:26:11.850Z,16
2023-06-01T01:27:12.025Z,16
2023-06-01T01:28:12.212Z,16
2023-06-01T01:29:12.377Z,16
2023-06-01T01:30:12.559Z,16
2023-06-01T01:31:12.865Z,16
2023-06-01T01:32:13.133Z,16
2023-06-01T01:33:13.316Z,16
2023-06-01T01:34:13.538Z,16
2023-06-01T01:35:13.704Z,16
2023-06-01T01:36:13.881Z,16
2023-06-01T01:37:14.195Z,16
2023-06-01T01:38:14.355Z,16
2023-06-01T01:39:14.517Z,16
2023-06-01T01:40:14.694Z,16
2023-06-01T01:41:14.891Z,16
2023-06-01T01:42:15.069Z,16
2023-06-01T01:43:15.261Z,16
2023-06-01T01:44:15.454Z,16
2023-06-01T01:45:16.534Z,16
2023-06-01T01:46:16.761Z,16
2023-06-01T01:47:17.101Z,16
2023-06-01T01:48:17.373Z,16
2023-06-01T01:49:17.597Z,16
2023-06-01T01:50:17.767Z,16
2023-06-01T01:51:17.953Z,16
2023-06-01T01:52:18.146Z,16
2023-06-01T01:53:18.318Z,16
2023-06-01T01:54:18.507Z,16
2023-06-01T01:55:18.746Z,16
2023-06-01T01:56:18.924Z,16
2023-06-01T01:57:19.082Z,16
2023-06-01T01:58:19.246Z,16
2023-06-01T01:59:19.446Z,16
2023-06-01T02:00:19.626Z,16
2023-06-01T02:01:19.913Z,16
2023-06-01T02:02:20.353Z,16
2023-06-01T02:03:20.845Z,16
2023-06-01T02:04:21.459Z,16
2023-06-01T02:05:21.638Z,16
2023-06-01T02:06:21.809Z,16
2023-06-01T02:07:22.011Z,16
2023-06-01T02:08:22.185Z,16
2023-06-01T02:09:22.357Z,16
2023-06-01T02:10:22.531Z,16
2023-06-01T02:11:22.722Z,16
2023-06-01T02:12:22.888Z,16
2023-06-01T02:13:23.084Z,16
2023-06-01T02:14:23.245Z,16
2023-06-01T02:15:23.408Z,16
2023-06-01T02:16:23.699Z,16
2023-06-01T02:17:24.000Z,16
2023-06-01T02:18:24.209Z,16
2023-06-01T02:19:24.384Z,16
2023-06-01T02:20:24.560Z,15.2
2023-06-01T02:21:24.789Z,15.2
2023-06-01T02:22:25.087Z,15.2
2023-06-01T02:23:25.254Z,15.2
2023-06-01T02:24:25.448Z,15.2
2023-06-01T02:25:25.660Z,15.2
2023-06-01T02:26:25.871Z,15.2
2023-06-01T02:27:26.051Z,15.2
2023-06-01T02:28:26.417Z,15.2
2023-06-01T02:29:26.911Z,15.2
2023-06-01T02:30:27.085Z,15.2
2023-06-01T02:31:27.313Z,15.2
2023-06-01T02:32:27.733Z,15.2
2023-06-01T02:33:27.996Z,15.2
2023-06-01T02:34:28.175Z,15.2
2023-06-01T02:35:28.334Z,15.2
2023-06-01T02:36:28.525Z,15.2
2023-06-01T02:37:28.684Z,15.2
2023-06-01T02:38:28.858Z,15.2
2023-06-01T02:39:29.038Z,15.2
2023-06-01T02:40:29.207Z,15.2
2023-06-01T02:41:29.375Z,15.2
2023-06-01T02:42:29.585Z,15.2
2023-06-01T02:43:29.755Z,15.2
2023-06-01T02:44:29.917Z,15.2
2023-06-01T02:45:30.098Z,15.2
2023-06-01T02:46:30.384Z,15.2
2023-06-01T02:47:30.768Z,15.2
2023-06-01T02:48:31.002Z,15.2
2023-06-01T02:49:31.179Z,15.2
2023-06-01T02:50:31.339Z,15.2
2023-06-01T02:51:31.505Z,15.2
2023-06-01T02:52:31.659Z,15.2
2023-06-01T02:53:31.930Z,15.2
2023-06-01T02:54:32.340Z,15.2
2023-06-01T02:55:32.512Z,15.2
2023-06-01T02:56:32.699Z,15.2
2023-06-01T02:57:32.882Z,15.2
2023-06-01T02:58:33.044Z,15.2
2023-06-01T02:59:33.209Z,15.2
2023-06-01T03:00:33.400Z,15.2
2023-06-01T03:01:33.666Z,15.2
2023-06-01T03:02:33.959Z,15.2
2023-06-01T03:03:34.305Z,15.2
2023-06-01T03:04:34.538Z,15.2
2023-06-01T03:05:34.720Z,15.2
2023-06-01T03:06:34.935Z,15.2
2023-06-01T03:07:35.106Z,15.2
2023-06-01T03:08:35.310Z,15.2
2023-06-01T03:09:35.471Z,15.2
2023-06-01T03:10:35.644Z,15.2
2023-06-01T03:11:35.805Z,15.2
2023-06-01T03:12:35.980Z,15.2
2023-06-01T03:13:36.186Z,15.2
2023-06-01T03:14:36.384Z,15.2
2023-06-01T03:15:36.650Z,15.2
2023-06-01T03:16:36.841Z,15.2
2023-06-01T03:17:37.085Z,15.2
2023-06-01T03:18:39.657Z,15.2
2023-06-01T03:19:40.032Z,15.2
2023-06-01T03:20:40.210Z,14.7
2023-06-01T03:21:40.530Z,14.7
2023-06-01T03:22:40.779Z,14.7
2023-06-01T03:23:40.933Z,14.7
2023-06-01T03:24:41.106Z,14.7
2023-06-01T03:25:41.436Z,14.7
2023-06-01T03:26:41.864Z,14.7
2023-06-01T03:27:42.105Z,14.7
2023-06-01T03:28:42.272Z,14.7
2023-06-01T03:29:42.456Z,14.7
2023-06-01T03:30:42.629Z,14.7
2023-06-01T03:31:42.913Z,14.7
2023-06-01T03:32:43.228Z,14.7
2023-06-01T03:33:43.449Z,14.7
2023-06-01T03:34:43.601Z,14.7
2023-06-01T03:35:43.775Z,14.7
2023-06-01T03:36:43.937Z,14.7
2023-06-01T03:37:44.100Z,14.7
2023-06-01T03:38:44.264Z,14.7
2023-06-01T03:39:44.445Z,14.7
2023-06-01T03:40:44.609Z,14.7
2023-06-01T03:41:44.785Z,14.7
2023-06-01T03:42:44.978Z,14.7
2023-06-01T03:43:45.157Z,14.7
2023-06-01T03:44:45.332Z,14.7
2023-06-01T03:45:45.517Z,14.7
2023-06-01T03:46:45.750Z,14.7
2023-06-01T03:47:46.144Z,14.7
2023-06-01T03:48:46.503Z,14.7
2023-06-01T03:49:46.687Z,14.7
2023-06-01T03:50:46.855Z,14.7
2023-06-01T03:51:47.028Z,14.7
2023-06-01T03:52:47.225Z,14.7
2023-06-01T03:53:47.389Z,14.7
2023-06-01T03:54:47.544Z,14.7
2023-06-01T03:55:47.700Z,14.7
2023-06-01T03:56:47.888Z,14.7
2023-06-01T03:57:48.080Z,14.7
2023-06-01T03:58:48.264Z,14.7
2023-06-01T03:59:48.449Z,14.7
2023-06-01T04:00:48.624Z,14.7
2023-06-01T04:01:48.828Z,14.7
2023-06-01T04:02:49.156Z,14.7
2023-06-01T04:03:49.583Z,14.7
2023-06-01T04:04:50.144Z,14.7
2023-06-01T04:05:50.306Z,14.7
2023-06-01T04:06:50.470Z,14.7
2023-06-01T04:07:50.632Z,14.7
2023-06-01T04:08:50.789Z,14.7
2023-06-01T04:09:50.958Z,14.7
2023-06-01T04:10:51.118Z,14.7
2023-06-01T04:11:51.283Z,14.7
2023-06-01T04:12:51.541Z,14.7
2023-06-01T04:13:51.739Z,14.7
2023-06-01T04:14:51.915Z,14.7
2023-06-01T04:15:52.095Z,14.7
2023-06-01T04:16:52.370Z,14.7
2023-06-01T04:17:52.751Z,14.7
2023-06-01T04:18:52.997Z,14.7
2023-06-01T04:19:55.426Z,14.7
2023-06-01T04:20:55.722Z,14.1
2023-06-01T04:21:56.012Z,14.1
2023-06-01T04:22:56.210Z,14.1
2023-06-01T04:23:56.400Z,14.1
2023-06-01T04:24:56.618Z,14.1
2023-06-01T04:25:56.793Z,14.1
2023-06-01T04:26:56.973Z,14.1
2023-06-01T04:27:57.160Z,14.1
2023-06-01T04:28:57.319Z,14.1
2023-06-01T04:29:57.492Z,14.1
2023-06-01T04:30:57.653Z,14.1
2023-06-01T04:31:57.906Z,14.1
2023-06-01T04:32:58.189Z,14.1
2023-06-01T04:33:58.443Z,14.1
2023-06-01T04:34:58.615Z,14.1
2023-06-01T04:35:58.893Z,14.1
2023-06-01T04:36:59.134Z,14.1
2023-06-01T04:37:59.294Z,14.1
2023-06-01T04:38:59.496Z,14.1
2023-06-01T04:39:59.654Z,14.1
2023-06-01T04:41:00.120Z,14.1
2023-06-01T04:42:00.833Z,14.1
2023-06-01T04:43:00.993Z,14.1
2023-06-01T04:44:01.173Z,14.1
2023-06-01T04:45:01.341Z,14.1
2023-06-01T04:46:01.615Z,14.1
2023-06-01T04:47:01.918Z,14.1
2023-06-01T04:48:02.153Z,14.1
2023-06-01T04:49:02.499Z,14.1
2023-06-01T04:50:02.660Z,14.1
2023-06-01T04:51:03.310Z,14.1
2023-06-01T04:52:03.753Z,14.1
2023-06-01T04:53:03.917Z,14.1
2023-06-01T04:54:04.081Z,14.1
2023-06-01T04:55:04.386Z,14.1
2023-06-01T04:56:04.579Z,14.1
2023-06-01T04:57:04.759Z,14.1
2023-06-01T04:58:05.011Z,14.1
2023-06-01T04:59:05.290Z,14.1
2023-06-01T05:00:05.459Z,14.1
2023-06-01T05:01:05.624Z,14.1
2023-06-01T05:02:06.012Z,14.1
2023-06-01T05:03:06.560Z,14.1
2023-06-01T05:04:06.938Z,14.1
2023-06-01T05:05:07.184Z,14.1
2023-06-01T05:06:07.351Z,14.1
2023-06-01T05:07:07.516Z,14.1
2023-06-01T05:08:07.710Z,14.1
2023-06-01T05:09:07.856Z,14.1
2023-06-01T05:10:08.051Z,14.1
2023-06-01T05:11:08.225Z,14.1
2023-06-01T05:12:08.384Z,14.1
2023-06-01T05:13:08.543Z,14.1
2023-06-01T05:14:08.706Z,14.1
2023-06-01T05:15:08.953Z,14.1
2023-06-01T05:16:09.338Z,14.1
2023-06-01T05:17:09.656Z,14.1
2023-06-01T05:18:10.032Z,14.1
2023-06-01T05:19:10.271Z,14.1
2023-06-01T05:20:10.895Z,14.1
2023-06-01T05:21:11.078Z,14.7
2023-06-01T05:22:11.272Z,14.7
2023-06-01T05:23:11.487Z,14.7
2023-06-01T05:24:11.658Z,14.7
2023-06-01T05:25:11.827Z,14.7
2023-06-01T05:26:12.046Z,14.7
2023-06-01T05:27:12.207Z,14.7
2023-06-01T05:28:12.362Z,14.7
2023-06-01T05:29:12.534Z,14.7
2023-06-01T05:30:12.709Z,14.7
2023-06-01T05:31:12.943Z,14.7
2023-06-01T05:32:13.241Z,14.7
2023-06-01T05:33:13.469Z,14.7
2023-06-01T05:34:13.704Z,14.7
2023-06-01T05:35:13.887Z,14.7
2023-06-01T05:36:14.058Z,14.7
2023-06-01T05:37:14.252Z,14.7
2023-06-01T05:38:14.436Z,14.7
2023-06-01T05:39:14.625Z,14.7
2023-06-01T05:40:14.790Z,14.7
2023-06-01T05:41:15.011Z,14.7
2023-06-01T05:42:15.258Z,14.7
2023-06-01T05:43:15.526Z,14.7
2023-06-01T05:44:15.687Z,14.7
2023-06-01T05:45:15.904Z,14.7
2023-06-01T05:46:16.175Z,14.7
2023-06-01T05:47:16.386Z,14.7
2023-06-01T05:48:16.573Z,14.7
2023-06-01T05:49:16.788Z,14.7
2023-06-01T05:50:16.968Z,14.7
2023-06-01T05:51:17.135Z,14.7
2023-06-01T05:52:17.303Z,14.7
2023-06-01T05:53:17.473Z,14.7
2023-06-01T05:54:17.632Z,14.7
2023-06-01T05:55:17.800Z,14.7
2023-06-01T05:56:17.992Z,14.7
2023-06-01T05:57:18.235Z,14.7
2023-06-01T05:58:18.491Z,14.7
2023-06-01T05:59:18.705Z,14.7
2023-06-01T06:00:18.926Z,15.7
2023-06-01T06:01:19.120Z,15.7
2023-06-01T06:02:19.507Z,15.7
2023-06-01T06:03:19.953Z,15.7
2023-06-01T06:04:20.348Z,15.7
2023-06-01T06:05:20.631Z,15.7
2023-06-01T06:06:24.751Z,15.7
2023-06-01T06:07:26.116Z,15.7
2023-06-01T06:08:26.294Z,15.7
2023-06-01T06:09:26.463Z,15.7
2023-06-01T06:10:26.693Z,15.7
2023-06-01T06:11:26.875Z,15.7
2023-06-01T06:12:27.037Z,15.7
2023-06-01T06:13:27.195Z,15.7
2023-06-01T06:14:27.449Z,15.7
2023-06-01T06:15:27.743Z,15.7
2023-06-01T06:16:28.163Z,15.7
2023-06-01T06:17:28.472Z,15.7
2023-06-01T06:18:28.694Z,15.7
2023-06-01T06:19:28.888Z,15.7
2023-06-01T06:20:29.131Z,15.7
2023-06-01T06:21:29.383Z,15.7
2023-06-01T06:22:29.636Z,15.7
2023-06-01T06:23:29.860Z,15.7
2023-06-01T06:24:30.023Z,15.7
2023-06-01T06:25:30.207Z,15.7
2023-06-01T06:26:30.390Z,15.7
2023-06-01T06:27:30.545Z,15.7
2023-06-01T06:28:30.725Z,15.7
2023-06-01T06:29:30.921Z,15.7
2023-06-01T06:30:31.093Z,15.7
2023-06-01T06:31:31.340Z,15.7
2023-06-01T06:32:31.594Z,15.7
2023-06-01T06:33:31.841Z,15.7
2023-06-01T06:34:32.015Z,15.7
2023-06-01T06:35:32.191Z,15.7
2023-06-01T06:36:32.384Z,15.7
2023-06-01T06:37:32.576Z,15.7
2023-06-01T06:38:32.765Z,15.7
2023-06-01T06:39:32.935Z,15.7
2023-06-01T06:40:33.105Z,15.7
2023-06-01T06:41:33.279Z,16.7
2023-06-01T06:42:33.506Z,16.7
2023-06-01T06:43:33.695Z,16.7
2023-06-01T06:44:33.859Z,16.7
2023-06-01T06:45:34.048Z,16.7
2023-06-01T06:46:34.259Z,16.7
2023-06-01T06:47:34.530Z,16.7
2023-06-01T06:48:34.749Z,16.7
2023-06-01T06:49:34.987Z,16.7
2023-06-01T06:50:35.184Z,16.7
2023-06-01T06:51:35.364Z,16.7
2023-06-01T06:52:35.550Z,16.7
2023-06-01T06:53:35.709Z,16.7
2023-06-01T06:54:35.889Z,16.7
2023-06-01T06:55:36.082Z,16.7
2023-06-01T06:56:36.275Z,16.7
2023-06-01T06:57:36.468Z,16.7
2023-06-01T06:58:36.646Z,16.7
2023-06-01T06:59:36.837Z,16.7
2023-06-01T07:00:37.013Z,16.7
2023-06-01T07:01:41.814Z,16.7
2023-06-01T07:02:42.496Z,17.2
2023-06-01T07:03:42.920Z,17.2
2023-06-01T07:04:43.150Z,17.2
2023-06-01T07:05:43.368Z,17.2
2023-06-01T07:06:43.534Z,17.2
2023-06-01T07:07:43.738Z,17.2
2023-06-01T07:08:43.909Z,17.2
2023-06-01T07:09:44.078Z,17.2
2023-06-01T07:10:44.253Z,17.2
2023-06-01T07:11:44.452Z,17.2
2023-06-01T07:12:44.656Z,17.2
2023-06-01T07:13:44.833Z,17.2
2023-06-01T07:14:45.024Z,17.2
2023-06-01T07:15:45.212Z,17.2
2023-06-01T07:16:45.503Z,17.7
2023-06-01T07:17:46.042Z,17.7
2023-06-01T07:18:46.386Z,17.7
2023-06-01T07:19:46.548Z,17.7
2023-06-01T07:20:46.697Z,17.7
2023-06-01T07:21:46.982Z,17.7
2023-06-01T07:22:47.297Z,17.7
2023-06-01T07:23:47.514Z,17.7
2023-06-01T07:24:47.697Z,17.7
2023-06-01T07:25:47.869Z,17.7
2023-06-01T07:26:48.073Z,17.7
2023-06-01T07:27:48.273Z,17.7
2023-06-01T07:28:48.449Z,17.7
2023-06-01T07:29:48.609Z,17.7
2023-06-01T07:30:48.788Z,17.7
2023-06-01T07:31:49.187Z,17.7
2023-06-01T07:32:49.738Z,17.7
2023-06-01T07:33:50.138Z,17.7
2023-06-01T07:34:50.385Z,17.7
2023-06-01T07:35:50.598Z,17.7
2023-06-01T07:36:55.130Z,17.7
2023-06-01T07:38:08.726Z,18.29
2023-06-01T07:39:08.894Z,18.29
2023-06-01T07:40:09.235Z,18.29
2023-06-01T07:41:09.398Z,18.29
2023-06-01T07:42:09.611Z,18.29
2023-06-01T07:43:09.776Z,18.29
2023-06-01T07:44:09.946Z,18.29
2023-06-01T07:45:10.119Z,18.29
2023-06-01T07:46:10.372Z,18.29
2023-06-01T07:47:10.775Z,18.29
2023-06-01T07:48:11.553Z,18.7
2023-06-01T07:49:11.790Z,18.7
2023-06-01T07:50:11.971Z,18.7
2023-06-01T07:51:12.163Z,18.7
2023-06-01T07:52:12.336Z,18.7
2023-06-01T07:53:12.513Z,18.7
2023-06-01T07:54:12.697Z,18.7
2023-06-01T07:55:12.857Z,18.7
2023-06-01T07:56:13.091Z,18.7
2023-06-01T07:57:13.251Z,18.7
2023-06-01T07:58:13.391Z,18.7
2023-06-01T07:59:13.534Z,18.7
2023-06-01T08:00:13.742Z,18.7
2023-06-01T08:01:13.925Z,18.7
2023-06-01T08:02:14.132Z,18.7
2023-06-01T08:03:14.654Z,18.7
2023-06-01T08:04:14.978Z,18.7
2023-06-01T08:05:15.205Z,18.7
2023-06-01T08:06:15.554Z,18.7
2023-06-01T08:07:15.823Z,18.7
2023-06-01T08:08:16.029Z,18.7
2023-06-01T08:09:16.213Z,18.7
2023-06-01T08:10:16.382Z,18.7
2023-06-01T08:11:16.680Z,18.7
2023-06-01T08:12:17.360Z,18.7
2023-06-01T08:13:17.526Z,18.7
2023-06-01T08:14:17.694Z,18.7
2023-06-01T08:15:17.942Z,18.7
2023-06-01T08:16:18.124Z,18.7
2023-06-01T08:17:18.334Z,18.7
2023-06-01T08:18:18.685Z,18.7
2023-06-01T08:19:18.981Z,19.7
2023-06-01T08:20:19.155Z,19.7
2023-06-01T08:21:19.469Z,19.7
2023-06-01T08:22:19.875Z,19.7
2023-06-01T08:23:20.153Z,19.7
2023-06-01T08:24:20.331Z,19.7
2023-06-01T08:25:20.519Z,19.7
2023-06-01T08:26:20.718Z,19.7
2023-06-01T08:27:25.416Z,19.7
2023-06-01T08:28:26.177Z,20
2023-06-01T08:29:43.030Z,20
2023-06-01T08:30:43.453Z,20
2023-06-01T08:31:43.801Z,20
2023-06-01T08:32:44.194Z,20
2023-06-01T08:33:44.482Z,20
2023-06-01T08:34:44.673Z,20
2023-06-01T08:35:45.057Z,20
2023-06-01T08:36:45.276Z,20
2023-06-01T08:37:45.478Z,20
2023-06-01T08:38:45.647Z,20
2023-06-01T08:39:45.851Z,20
2023-06-01T08:40:46.039Z,20
2023-06-01T08:41:46.206Z,20
2023-06-01T08:42:46.373Z,20
2023-06-01T08:43:46.550Z,20
2023-06-01T08:44:46.720Z,20
2023-06-01T08:45:46.938Z,20
2023-06-01T08:46:47.173Z,20.7
2023-06-01T08:47:47.496Z,20.7
2023-06-01T08:48:47.741Z,20.7
2023-06-01T08:49:47.922Z,20.7
2023-06-01T08:50:48.079Z,20.7
2023-06-01T08:51:48.256Z,20.7
2023-06-01T08:52:48.434Z,20.7
2023-06-01T08:53:48.590Z,20.7
2023-06-01T08:54:48.751Z,20.7
2023-06-01T08:55:48.911Z,20.7
2023-06-01T08:56:49.102Z,20.7
2023-06-01T08:57:49.280Z,20.7
2023-06-01T08:58:49.455Z,20.7
2023-06-01T08:59:49.632Z,20.7
2023-06-01T09:00:49.949Z,20.7
2023-06-01T09:01:50.234Z,20.7
2023-06-01T09:02:50.452Z,20.7
2023-06-01T09:03:50.862Z,20.7
2023-06-01T09:04:51.144Z,20.7
2023-06-01T09:05:51.323Z,20.7
2023-06-01T09:06:53.616Z,20.7
2023-06-01T09:07:53.867Z,20.7
2023-06-01T09:08:54.236Z,21.7
2023-06-01T09:09:54.912Z,21.7
2023-06-01T09:10:55.306Z,21.7
2023-06-01T09:11:55.471Z,21.7
2023-06-01T09:12:55.659Z,21.7
2023-06-01T09:13:55.862Z,21.7
2023-06-01T09:14:56.027Z,21.7
2023-06-01T09:15:56.216Z,21.7
2023-06-01T09:16:56.524Z,21.7
2023-06-01T09:17:56.862Z,21.7
2023-06-01T09:18:57.105Z,21.7
2023-06-01T09:19:57.288Z,21.7
2023-06-01T09:20:59.291Z,21.7
2023-06-01T09:22:02.167Z,22.1
2023-06-01T09:23:02.494Z,22.1
2023-06-01T09:24:02.674Z,22.1
2023-06-01T09:25:02.856Z,22.1
2023-06-01T09:26:03.528Z,22.1
2023-06-01T09:27:04.249Z,22.1
2023-06-01T09:28:04.438Z,22.1
2023-06-01T09:29:04.621Z,22.1
2023-06-01T09:30:04.801Z,22.1
2023-06-01T09:31:05.056Z,22.1
2023-06-01T09:32:05.275Z,22.1
2023-06-01T09:33:05.533Z,22.1
2023-06-01T09:34:05.779Z,22.1
2023-06-01T09:35:05.926Z,22.1
2023-06-01T09:36:06.082Z,22.1
2023-06-01T09:37:06.267Z,22.1
2023-06-01T09:38:06.438Z,22.7
2023-06-01T09:39:06.666Z,22.7
2023-06-01T09:40:06.940Z,22.7
2023-06-01T09:41:07.160Z,22.7
2023-06-01T09:42:07.325Z,22.7
2023-06-01T09:43:07.502Z,22.7
2023-06-01T09:44:07.684Z,22.7
2023-06-01T09:45:07.858Z,22.7
2023-06-01T09:46:08.158Z,22.7
2023-06-01T09:47:08.841Z,22.7
2023-06-01T09:48:09.215Z,22.7
2023-06-01T09:49:09.422Z,22.7
2023-06-01T09:50:09.580Z,22.7
2023-06-01T09:51:09.829Z,22.7
2023-06-01T09:52:10.016Z,23.7
2023-06-01T09:53:10.193Z,23.7
2023-06-01T09:54:10.350Z,23.7
2023-06-01T09:55:10.512Z,23.7
2023-06-01T09:56:10.678Z,23.7
2023-06-01T09:57:13.288Z,23.7
2023-06-01T09:58:13.783Z,23.7
2023-06-01T09:59:13.938Z,23.7
2023-06-01T10:00:14.101Z,23.7
2023-06-01T10:01:14.310Z,23.7
2023-06-01T10:02:14.612Z,23.7
2023-06-01T10:03:14.966Z,23.7
2023-06-01T10:04:15.393Z,23.7
2023-06-01T10:05:15.659Z,23.7
2023-06-01T10:06:15.887Z,23.7
2023-06-01T10:07:16.043Z,24.7
2023-06-01T10:08:16.214Z,24.7
2023-06-01T10:09:16.369Z,24.7
2023-06-01T10:10:16.689Z,24.7
2023-06-01T10:11:16.924Z,24.7
2023-06-01T10:12:17.170Z,24.7
2023-06-01T10:13:17.378Z,24.7
2023-06-01T10:14:17.534Z,24.7
2023-06-01T10:15:31.664Z,24.7
2023-06-01T10:16:32.189Z,25
2023-06-01T10:17:32.491Z,25
2023-06-01T10:18:32.699Z,25
2023-06-01T10:19:32.909Z,25
2023-06-01T10:20:33.076Z,25
2023-06-01T10:21:33.338Z,25
2023-06-01T10:22:33.640Z,25
2023-06-01T10:23:33.808Z,25
2023-06-01T10:24:34.056Z,25
2023-06-01T10:25:34.295Z,25
2023-06-01T10:26:34.495Z,25
2023-06-01T10:27:34.705Z,25
2023-06-01T10:28:34.890Z,25
2023-06-01T10:29:35.056Z,25
2023-06-01T10:30:35.219Z,25.7
2023-06-01T10:31:35.523Z,25.7
2023-06-01T10:32:35.869Z,25.7
2023-06-01T10:33:36.140Z,25.7
2023-06-01T10:34:36.310Z,25.7
2023-06-01T10:35:36.541Z,25.7
2023-06-01T10:36:36.693Z,25.7
2023-06-01T10:37:36.855Z,25.7
2023-06-01T10:38:37.016Z,25.7
2023-06-01T10:39:40.221Z,25.7
2023-06-01T10:40:40.524Z,26
2023-06-01T10:41:40.705Z,26
2023-06-01T10:42:40.896Z,26
2023-06-01T10:43:41.088Z,26
2023-06-01T10:44:41.292Z,26
2023-06-01T10:45:42.286Z,26
2023-06-01T10:46:46.199Z,26
2023-06-01T10:47:46.691Z,26
2023-06-01T10:48:46.944Z,26
2023-06-01T10:49:47.110Z,26
2023-06-01T10:50:47.272Z,26
2023-06-01T10:51:47.435Z,26
2023-06-01T10:52:47.646Z,26
2023-06-01T10:53:47.848Z,26
2023-06-01T10:54:48.045Z,26
2023-06-01T10:55:48.198Z,26.7
2023-06-01T10:56:48.376Z,26.7
2023-06-01T10:57:48.629Z,26.7
2023-06-01T10:58:48.849Z,26.7
2023-06-01T10:59:49.010Z,26.7
2023-06-01T11:00:49.285Z,26.7
2023-06-01T11:01:50.030Z,26.7
2023-06-01T11:02:50.732Z,26.7
2023-06-01T11:03:51.654Z,26.7
2023-06-01T11:04:52.550Z,26.7
2023-06-01T11:05:52.910Z,26.7
2023-06-01T11:06:53.095Z,26.7
2023-06-01T11:07:53.265Z,26.7
2023-06-01T11:08:53.466Z,26.7
2023-06-01T11:09:53.805Z,26.7
2023-06-01T11:10:54.661Z,26.7
2023-06-01T11:11:54.938Z,26.7
2023-06-01T11:12:55.154Z,26.7
2023-06-01T11:13:55.322Z,27.7
2023-06-01T11:14:55.656Z,27.7
2023-06-01T11:16:09.633Z,27.7
2023-06-01T11:17:11.128Z,27.8
2023-06-01T11:18:11.403Z,27.8
2023-06-01T11:19:11.659Z,27.8
2023-06-01T11:20:11.841Z,27.8
2023-06-01T11:21:12.017Z,27.8
2023-06-01T11:22:12.351Z,27.8
2023-06-01T11:23:12.681Z,27.8
2023-06-01T11:24:12.854Z,27.8
2023-06-01T11:25:13.014Z,27.8
2023-06-01T11:26:13.196Z,27.8
2023-06-01T11:27:13.372Z,27.8
2023-06-01T11:28:13.545Z,27.8
2023-06-01T11:29:13.719Z,27.8
2023-06-01T11:30:13.923Z,28.7
2023-06-01T11:31:14.263Z,28.7
2023-06-01T11:32:14.493Z,28.7
2023-06-01T11:33:14.814Z,28.7
2023-06-01T11:34:15.051Z,28.7
2023-06-01T11:35:15.219Z,28.7
2023-06-01T11:36:15.407Z,28.7
2023-06-01T11:37:15.573Z,28.7
2023-06-01T11:38:15.761Z,28.7
2023-06-01T11:39:21.323Z,28.7
2023-06-01T11:40:21.554Z,29.3
2023-06-01T11:41:21.724Z,29.3
2023-06-01T11:42:21.879Z,29.3
2023-06-01T11:43:22.035Z,29.3
2023-06-01T11:44:22.231Z,29.3
2023-06-01T11:45:22.422Z,29.7
2023-06-01T11:46:22.877Z,29.7
2023-06-01T11:47:23.401Z,29.7
2023-06-01T11:48:24.035Z,29.7
2023-06-01T11:49:24.373Z,29.7
2023-06-01T11:50:24.525Z,29.7
2023-06-01T11:51:24.678Z,29.7
2023-06-01T11:52:24.864Z,29.7
2023-06-01T11:53:25.018Z,29.7
2023-06-01T11:54:25.192Z,29.7
2023-06-01T11:55:25.366Z,29.7
2023-06-01T11:56:25.532Z,29.7
2023-06-01T11:57:27.805Z,29.7
2023-06-01T11:58:28.057Z,29.7
2023-06-01T11:59:28.207Z,29.7
2023-06-01T12:00:28.390Z,29.7
2023-06-01T12:01:28.578Z,29.7
2023-06-01T12:02:29.308Z,29.7
2023-06-01T12:03:32.309Z,29.7
2023-06-01T12:04:32.969Z,29.7
2023-06-01T12:05:33.413Z,29.7
2023-06-01T12:06:33.584Z,29.7
2023-06-01T12:07:33.751Z,29.7
2023-06-01T12:08:33.936Z,29.7
2023-06-01T12:09:34.162Z,29.7
2023-06-01T12:10:34.341Z,29.7
2023-06-01T12:11:34.505Z,30.7
2023-06-01T12:12:34.975Z,30.7
2023-06-01T12:13:35.200Z,30.7
2023-06-01T12:14:35.423Z,30.7
2023-06-01T12:15:35.668Z,30.7
2023-06-01T12:16:36.025Z,30.7
2023-06-01T12:17:36.571Z,30.7
2023-06-01T12:18:37.439Z,30.7
2023-06-01T12:19:37.919Z,30.7
2023-06-01T12:20:38.101Z,30.7
2023-06-01T12:21:38.338Z,30.7
2023-06-01T12:22:38.567Z,30.7
2023-06-01T12:23:38.728Z,30.7
2023-06-01T12:24:38.890Z,30.7
2023-06-01T12:25:39.080Z,30.7
2023-06-01T12:26:39.278Z,30.7
2023-06-01T12:27:39.505Z,30.7
2023-06-01T12:28:39.680Z,30.7
2023-06-01T12:29:39.867Z,30.7
2023-06-01T12:30:40.139Z,30.7
2023-06-01T12:31:40.466Z,30.7
2023-06-01T12:32:40.804Z,30.7
2023-06-01T12:33:41.063Z,30.7
2023-06-01T12:34:41.213Z,30.7
2023-06-01T12:35:41.391Z,31.7
2023-06-01T12:36:41.560Z,31.7
2023-06-01T12:37:41.711Z,31.7
2023-06-01T12:38:41.874Z,31.7
2023-06-01T12:39:42.103Z,31.7
2023-06-01T12:40:42.557Z,31.7
2023-06-01T12:41:42.826Z,31.7
2023-06-01T12:42:42.980Z,31.7
2023-06-01T12:43:43.136Z,31.7
2023-06-01T12:44:43.469Z,31.7
2023-06-01T12:45:43.648Z,31.7
2023-06-01T12:46:43.887Z,31.7
2023-06-01T12:47:44.248Z,31.7
2023-06-01T12:48:44.549Z,31.7
2023-06-01T12:49:44.757Z,31.7
2023-06-01T12:50:44.909Z,31.7
2023-06-01T12:51:45.095Z,31.7
2023-06-01T12:52:45.263Z,31.7
2023-06-01T12:53:45.506Z,31.7
2023-06-01T12:54:45.754Z,31.7
2023-06-01T12:55:45.928Z,31.7
2023-06-01T12:56:46.109Z,31.7
2023-06-01T12:57:46.266Z,31.7
2023-06-01T12:58:46.429Z,31.7
2023-06-01T12:59:46.631Z,31.7
2023-06-01T13:00:57.943Z,32.7
2023-06-01T13:01:58.274Z,32.7
2023-06-01T13:02:58.795Z,32.7
2023-06-01T13:03:59.543Z,32.7
2023-06-01T13:04:59.914Z,32.7
2023-06-01T13:06:00.092Z,32.7
2023-06-01T13:07:00.279Z,32.7
2023-06-01T13:08:00.469Z,32.7
2023-06-01T13:09:00.623Z,32.7
2023-06-01T13:10:00.861Z,32.7
2023-06-01T13:11:01.033Z,32.7
2023-06-01T13:12:01.283Z,32.7
2023-06-01T13:13:01.490Z,32.7
2023-06-01T13:14:01.665Z,32.7
2023-06-01T13:15:01.896Z,32.7
2023-06-01T13:16:02.903Z,32.7
2023-06-01T13:17:03.693Z,32.7
2023-06-01T13:18:04.076Z,32.7
2023-06-01T13:19:04.376Z,32.7
2023-06-01T13:20:04.545Z,32.7
2023-06-01T13:21:04.720Z,32.7
2023-06-01T13:22:05.236Z,32.7
2023-06-01T13:23:05.699Z,32.7
2023-06-01T13:24:05.920Z,32.7
2023-06-01T13:25:06.258Z,32.7
2023-06-01T13:26:06.745Z,32.7
2023-06-01T13:27:07.036Z,32.7
2023-06-01T13:28:07.188Z,32.7
2023-06-01T13:29:07.435Z,32.7
2023-06-01T13:30:07.759Z,32.7
2023-06-01T13:31:07.925Z,33.7